Terminal Aerodrome Forecast
Issued by NWS Lake Charles, LA

Home | Current Version | Previous Version | Text Only | Print | Product List | Glossary On
Versions: 1 2 3 4 5 6 7 8 9 10 11 12 13
315
FTUS44 KLCH 291543 AAA
TAFAEX
TAF AMD
KAEX 291543Z 2916/3012 13010KT P6SM VCSH SCT009 BKN040
      TEMPO 2916/2918 BKN009
     FM291800 17010KT P6SM VCTS SCT025 BKN050CB
     FM300000 17007KT P6SM SCT100=

USA.gov is the U.S. government's official web portal to all federal, state and local government web resources and services.